Погода Куэлью-Нетуна 2 недели

Мараньян, Бразилия

25 июня-08 июля
  • 25июня
    Сегодня
    +22°
    +32°
    Ясно и безоблачно
    ВремяПогодаТемператураВлажностьДавлениеВетер, м/сВероятность осадков
    00:00Ясно и безоблачно+26°C85 %756 мм1.4 м/с5 %
    03:00Ясно и безоблачно+23°C82 %756 мм2.0 м/с5 %
    06:00Ясно и безоблачно+23°C90 %756 мм1.5 м/с5 %
    09:00Ясно и безоблачно+28°C68 %757 мм2.1 м/с5 %
    12:00Ясно и безоблачно+30°C48 %756 мм4.0 м/с5 %
    15:00Ясно и безоблачно+32°C39 %754 мм3.1 м/с5 %
    18:00Ясно и безоблачно+29°C60 %754 мм1.7 м/с5 %
    21:00Ясно и безоблачно+28°C71 %756 мм0.7 м/с5 %
  • 26июня
    Среда
    +22°
    +32°
    Ясно и безоблачно
    ВремяПогодаТемператураВлажностьДавлениеВетер, м/сВероятность осадков
    00:00Ясно и безоблачно+25°C78 %757 мм1.2 м/с5 %
    03:00Ясно и безоблачно+22°C84 %756 мм1.7 м/с1 %
    06:00Ясно и безоблачно+24°C95 %756 мм1.0 м/с3 %
    09:00Ясно и безоблачно+29°C66 %757 мм2.6 м/с4 %
    12:00Ясно и безоблачно+30°C53 %756 мм3.3 м/с2 %
    15:00Ясно и безоблачно+32°C44 %755 мм2.6 м/с5 %
    18:00Ясно и безоблачно+30°C64 %755 мм0.9 м/с5 %
    21:00Ясно и безоблачно+27°C77 %756 мм1.9 м/с8 %
  • 27июня
    Четверг
    +23°
    +33°
    Ясно и безоблачно
    ВремяПогодаТемператураВлажностьДавлениеВетер, м/сВероятность осадков
    00:00Практически безоблачно+25°C82 %756 мм1.0 м/с18 %
    03:00Ясно и безоблачно+23°C87 %755 мм2.0 м/с26 %
    06:00Ясно и безоблачно+24°C94 %755 мм1.9 м/с31 %
    09:00Ясно и безоблачно+28°C80 %757 мм1.0 м/с16 %
    12:00Ясно и безоблачно+31°C52 %756 мм2.7 м/с25 %
    15:00Ясно и безоблачно+32°C45 %753 мм1.7 м/с11 %
    18:00Практически безоблачно+30°C64 %754 мм1.2 м/с11 %
    21:00Практически безоблачно+27°C75 %755 мм1.8 м/с13 %
  • 28июня
    Пятница
    +22°
    +33°
    Ясно и безоблачно
    ВремяПогодаТемператураВлажностьДавлениеВетер, м/сВероятность осадков
    00:00Ясно и безоблачно+25°C80 %755 мм2.8 м/с21 %
    03:00Ясно и безоблачно+23°C94 %754 мм2.2 м/с8 %
    06:00Ясно и безоблачно+25°C97 %755 мм1.3 м/с8 %
    09:00Ясно и безоблачно+28°C77 %756 мм1.3 м/с11 %
    12:00Ясно и безоблачно+31°C51 %755 мм2.1 м/с15 %
    15:00Ясно и безоблачно+32°C46 %753 мм2.0 м/с16 %
    18:00Практически безоблачно+30°C60 %754 мм1.6 м/с16 %
    21:00Ясно и безоблачно+27°C75 %755 мм1.7 м/с19 %
  • 29июня
    Суббота
    +22°
    +33°
    Ясно и безоблачно
    ВремяПогодаТемператураВлажностьДавлениеВетер, м/сВероятность осадков
    00:00Ясно и безоблачно+25°C82 %756 мм2.3 м/с27 %
    03:00Ясно и безоблачно+23°C92 %755 мм2.3 м/с27 %
    06:00Ясно и безоблачно+25°C95 %756 мм1.3 м/с23 %
    09:00Ясно и безоблачно+28°C76 %757 мм0.7 м/с27 %
    12:00Практически безоблачно+31°C52 %756 мм2.4 м/с27 %
    15:00Ясно и безоблачно+32°C46 %754 мм1.5 м/с23 %
    18:00Ясно и безоблачно+30°C67 %754 мм0.5 м/с13 %
    21:00Ясно и безоблачно+27°C73 %756 мм2.0 м/с6 %
Мы используем cookies
Соглашаюсь